Campanya meteocatpedra

Dades de l'estació automàtica el Montmell

?
?
Resum diari 21:30 TU
Dades diàries de l'estació meteorològica
Temperatura mitjana 21.0 °C
Temperatura màxima 27.6 °C 10:04 TU
Temperatura mínima 15.1 °C 0:36 TU
Humitat relativa mitjana 74%
Precipitació acumulada 0.0 mm
Ratxa màxima del vent (6 m) 27.0 km/h - 180º 12:57 TU
Irradiació solar global 24.2 MJ/m2

El tram horari està expressat en Temps Universal (TU). Cal sumar una hora en horari d'hivern i dues en horari d'estiu per passar a l'hora oficial.

el Montmell

Metadades estació meteorol´gica
Municipi El Montmell
Comarca Baix Penedès
Altitud 545 m
Data alta 13.07.1995
Estat actual Operativa
Dades de període
Període
TU
TM
°C
TX
°C
TN
°C
HRM
%
PPT
mm
VVM (6 m)
km/h
DVM (6 m)
graus
VVX (6 m)
km/h
RS
W/m2
00:00 - 00:30 15.5 15.8 15.2 96 0.0 0.7 247 4.0 0
00:30 - 01:00 15.4 15.9 15.1 97 0.0 2.9 226 5.0 0
01:00 - 01:30 16.4 17.0 15.6 94 0.0 1.4 270 5.4 0
01:30 - 02:00 16.8 16.9 16.6 90 0.0 1.1 318 4.3 0
02:00 - 02:30 16.8 16.9 16.7 90 0.0 0.7 288 3.6 0
02:30 - 03:00 16.5 16.7 16.4 91 0.0 1.1 290 4.0 0
03:00 - 03:30 16.5 16.7 16.4 90 0.0 1.1 261 5.8 0
03:30 - 04:00 16.4 16.8 16.0 89 0.0 0.4 237 3.2 0
04:00 - 04:30 16.8 16.9 16.6 85 0.0 0.4 214 2.9 3
04:30 - 05:00 16.9 17.1 16.7 78 0.0 1.1 351 4.0 37
05:00 - 05:30 17.1 17.7 16.6 80 0.0 0.7 35 4.0 108
05:30 - 06:00 18.4 19.4 17.7 76 0.0 0.4 252 2.5 192
06:00 - 06:30 20.9 21.6 19.5 65 0.0 2.5 200 10.8 309
06:30 - 07:00 21.5 21.9 21.0 63 0.0 4.3 207 11.2 308
07:00 - 07:30 21.9 22.5 21.0 66 0.0 4.3 207 12.6 366
07:30 - 08:00 22.6 23.4 22.3 65 0.0 6.8 209 14.0 410
08:00 - 08:30 23.1 23.8 22.3 65 0.0 5.0 159 11.9 443
08:30 - 09:00 24.4 25.2 22.9 60 0.0 6.1 178 15.5 768
09:00 - 09:30 25.3 26.7 24.5 55 0.0 7.2 177 20.5 748
09:30 - 10:00 25.9 26.7 24.8 55 0.0 6.8 164 19.8 682
10:00 - 10:30 25.9 27.6 24.5 56 0.0 6.1 156 16.2 586
10:30 - 11:00 24.4 26.3 23.4 59 0.0 7.9 164 18.0 344
11:00 - 11:30 25.7 26.8 24.7 55 0.0 9.0 171 20.5 702
11:30 - 12:00 25.9 26.9 24.6 56 0.0 11.2 168 23.0 730
12:00 - 12:30 25.1 26.1 24.3 58 0.0 10.4 167 25.2 725
12:30 - 13:00 26.4 26.9 25.8 56 0.0 12.2 167 27.0 986
13:00 - 13:30 26.0 26.6 25.1 57 0.0 10.4 161 24.1 882
13:30 - 14:00 25.6 26.6 24.0 58 0.0 10.8 158 25.9 750
14:00 - 14:30 24.5 25.1 23.9 59 0.0 9.7 171 21.2 610
14:30 - 15:00 24.0 25.5 23.0 60 0.0 9.0 171 19.4 512
15:00 - 15:30 24.0 25.5 23.0 61 0.0 9.0 167 19.8 526
15:30 - 16:00 24.2 25.2 23.0 61 0.0 9.4 166 20.9 461
16:00 - 16:30 24.0 24.7 23.0 63 0.0 10.1 171 18.4 507
16:30 - 17:00 22.1 22.7 21.5 72 0.0 9.4 165 17.6 238
17:00 - 17:30 21.1 21.7 20.9 76 0.0 8.6 168 17.3 197
17:30 - 18:00 21.6 22.3 20.7 74 0.0 7.6 161 14.4 205
18:00 - 18:30 20.6 21.0 19.9 78 0.0 4.7 158 12.6 79
18:30 - 19:00 19.6 19.9 19.4 82 0.0 5.0 188 12.6 39
19:00 - 19:30 19.0 19.3 18.5 86 0.0 3.6 196 8.3 9
19:30 - 20:00 18.2 18.5 17.9 88 0.0 2.5 185 5.8 0
20:00 - 20:30 17.8 17.9 17.6 91 0.0 2.5 196 6.8 0
20:30 - 21:00 17.7 17.8 17.5 92 0.0 0.7 199 3.2 0
21:00 - 21:30 17.4 17.5 17.3 94 0.0 0.7 220 3.2 0
21:30 - 22:00 17.1 17.4 16.8 94 0.0 1.1 207 3.6 0

Les dades en taronja només han passat un control de qualitat automàtic. Resta pendent la seva validació definitiva.